createdAt,value
2017-08-28T00:00:13.731Z,76.32
2017-08-28T00:01:22.924Z,75.84
2017-08-28T00:02:32.627Z,76.23
2017-08-28T00:03:41.544Z,75.88
2017-08-28T00:04:50.684Z,76.14
2017-08-28T00:06:00.135Z,76.07
2017-08-28T00:07:09.493Z,76.32
2017-08-28T00:08:18.632Z,75.46
2017-08-28T00:09:27.857Z,75.84
2017-08-28T00:10:38.282Z,75.75
2017-08-28T00:11:47.419Z,75.56
2017-08-28T00:12:56.657Z,75.56
2017-08-28T00:14:06.165Z,75.65
2017-08-28T00:15:16.027Z,75.65
2017-08-28T00:16:25.701Z,75.75
2017-08-28T00:17:35.389Z,75.75
2017-08-28T00:18:44.799Z,75.56
2017-08-28T00:19:54.820Z,76.32
2017-08-28T00:21:04.168Z,75.94
2017-08-28T00:22:13.517Z,76.04
2017-08-28T00:23:22.982Z,75.94
2017-08-28T00:24:32.600Z,76.32
2017-08-28T00:25:41.966Z,76.71
2017-08-28T00:26:51.548Z,76.52
2017-08-28T00:28:00.943Z,76.52
2017-08-28T00:29:10.469Z,76.61
2017-08-28T00:30:19.532Z,76.9
2017-08-28T00:31:28.899Z,76.52
2017-08-28T00:32:38.785Z,77
2017-08-28T00:33:48.234Z,77
2017-08-28T00:34:58.036Z,76.81
2017-08-28T00:36:07.191Z,76.9
2017-08-28T00:37:16.375Z,77
2017-08-28T00:38:26.472Z,77
2017-08-28T00:39:35.816Z,77.48
2017-08-28T00:40:45.138Z,77.19
2017-08-28T00:41:54.081Z,77.19
2017-08-28T00:43:03.264Z,77.19
2017-08-28T00:44:12.378Z,77
2017-08-28T00:45:21.495Z,77.19
2017-08-28T00:46:31.006Z,77.09
2017-08-28T00:47:39.905Z,77.09
2017-08-28T00:48:49.359Z,77.29
2017-08-28T00:49:58.799Z,77.38
2017-08-28T00:51:07.928Z,77.19
2017-08-28T00:52:17.290Z,77.29
2017-08-28T00:53:26.983Z,77
2017-08-28T00:54:36.137Z,77.29
2017-08-28T00:55:45.159Z,77.29
2017-08-28T00:56:54.457Z,77.19
2017-08-28T00:58:04.486Z,77.19
2017-08-28T00:59:13.987Z,77.76
2017-08-28T01:00:23.129Z,77.38
2017-08-28T01:01:32.011Z,77.19
2017-08-28T01:02:40.898Z,77.38
2017-08-28T01:03:50.113Z,77.38
2017-08-28T01:04:59.003Z,76.96
2017-08-28T01:06:07.889Z,77.15
2017-08-28T01:07:16.775Z,77.38
2017-08-28T01:08:25.655Z,77.63
2017-08-28T01:09:34.538Z,77.53
2017-08-28T01:10:43.442Z,77.83
2017-08-28T01:11:52.307Z,77.73
2017-08-28T01:13:01.192Z,77.63
2017-08-28T01:14:10.075Z,77.44
2017-08-28T01:15:18.953Z,77.83
2017-08-28T01:16:27.834Z,77.53
2017-08-28T01:17:36.721Z,77.83
2017-08-28T01:18:45.604Z,78.11
2017-08-28T01:19:54.490Z,78.11
2017-08-28T01:21:03.366Z,78.11
2017-08-28T01:22:12.254Z,78.21
2017-08-28T01:23:21.131Z,77.92
2017-08-28T01:24:30.022Z,78.21
2017-08-28T01:25:38.898Z,78.5
2017-08-28T01:26:47.779Z,78.4
2017-08-28T01:27:56.664Z,78.21
2017-08-28T01:29:05.548Z,78.4
2017-08-28T01:30:14.431Z,78.69
2017-08-28T01:31:23.313Z,78.88
2017-08-28T01:32:32.197Z,78.5
2017-08-28T01:33:41.081Z,78.78
2017-08-28T01:34:49.960Z,78.98
2017-08-28T01:35:58.844Z,78.98
2017-08-28T01:37:07.726Z,79.46
2017-08-28T01:38:16.610Z,79.17
2017-08-28T01:39:25.490Z,79.17
2017-08-28T01:40:34.378Z,79.07
2017-08-28T01:41:43.268Z,78.98
2017-08-28T01:42:52.155Z,79.27
2017-08-28T01:44:01.038Z,79.46
2017-08-28T01:45:09.925Z,79.65
2017-08-28T01:46:18.803Z,79.84
2017-08-28T01:47:27.697Z,79.84
2017-08-28T01:48:36.579Z,79.94
2017-08-28T01:49:45.457Z,80.04
2017-08-28T01:50:54.344Z,79.94
2017-08-28T01:52:03.226Z,80.22
2017-08-28T01:53:12.111Z,79.94
2017-08-28T01:54:20.993Z,79.94
2017-08-28T01:55:29.882Z,80.22
2017-08-28T01:56:38.755Z,79.94
2017-08-28T01:57:47.639Z,79.9
2017-08-28T01:58:56.523Z,80.04
2017-08-28T02:00:05.405Z,80.13
2017-08-28T02:01:14.289Z,79.9
2017-08-28T02:02:23.176Z,79.8
2017-08-28T02:03:32.057Z,80.04
2017-08-28T02:04:40.940Z,79.99
2017-08-28T02:05:49.818Z,79.99
2017-08-28T02:06:58.702Z,80.66
2017-08-28T02:08:07.589Z,80.47
2017-08-28T02:09:16.474Z,80.66
2017-08-28T02:10:25.356Z,79.8
2017-08-28T02:11:34.234Z,79.99
2017-08-28T02:12:43.120Z,79.99
2017-08-28T02:13:52.001Z,79.71
2017-08-28T02:15:00.888Z,79.71
2017-08-28T02:16:09.772Z,79.99
2017-08-28T02:17:18.991Z,80.19
2017-08-28T02:18:27.870Z,80.09
2017-08-28T02:19:36.758Z,79.99
2017-08-28T02:20:45.636Z,80.09
2017-08-28T02:21:54.520Z,80.19
2017-08-28T02:23:03.404Z,80.19
2017-08-28T02:24:12.289Z,79.99
2017-08-28T02:25:21.170Z,79.71
2017-08-28T02:26:30.055Z,80.66
2017-08-28T02:27:38.936Z,80.47
2017-08-28T02:28:47.818Z,80.28
2017-08-28T02:29:56.704Z,80.66
2017-08-28T02:31:05.590Z,80.66
2017-08-28T02:32:14.462Z,80.57
2017-08-28T02:33:23.351Z,80.38
2017-08-28T02:34:32.229Z,80.66
2017-08-28T02:35:41.121Z,80.57
2017-08-28T02:36:50.001Z,80.66
2017-08-28T02:37:58.886Z,80.47
2017-08-28T02:39:07.767Z,80.38
2017-08-28T02:40:16.649Z,80.47
2017-08-28T02:41:25.530Z,80.19
2017-08-28T02:42:34.420Z,80.57
2017-08-28T02:43:43.635Z,80.57
2017-08-28T02:44:52.515Z,80.66
2017-08-28T02:46:01.395Z,80.57
2017-08-28T02:47:10.280Z,79.9
2017-08-28T02:48:19.168Z,80.09
2017-08-28T02:49:28.047Z,79.99
2017-08-28T02:50:36.938Z,79.9
2017-08-28T02:51:45.819Z,79.99
2017-08-28T02:52:54.703Z,80.19
2017-08-28T02:54:03.584Z,79.8
2017-08-28T02:55:12.477Z,79.99
2017-08-28T02:56:21.354Z,79.9
2017-08-28T02:57:30.583Z,80.47
2017-08-28T02:58:39.466Z,80.76
2017-08-28T02:59:48.349Z,80.57
2017-08-28T03:00:57.231Z,80.57
2017-08-28T03:02:06.115Z,80.57
2017-08-28T03:03:15.000Z,80.38
2017-08-28T03:04:23.883Z,80.47
2017-08-28T03:05:32.766Z,80.47
2017-08-28T03:06:41.643Z,80.57
2017-08-28T03:07:50.531Z,80.38
2017-08-28T03:08:59.412Z,80.28
2017-08-28T03:10:08.295Z,80.28
2017-08-28T03:11:17.177Z,80.57
2017-08-28T03:12:26.085Z,80.24
2017-08-28T03:13:34.939Z,80.57
2017-08-28T03:14:43.827Z,80.28
2017-08-28T03:15:52.710Z,81.05
2017-08-28T03:17:01.592Z,80.76
2017-08-28T03:18:10.474Z,80.63
2017-08-28T03:19:19.364Z,81.05
2017-08-28T03:20:28.249Z,80.91
2017-08-28T03:21:37.129Z,81.34
2017-08-28T03:22:46.010Z,81.3
2017-08-28T03:23:54.895Z,81.01
2017-08-28T03:25:03.782Z,81.3
2017-08-28T03:26:12.662Z,81.2
2017-08-28T03:27:21.549Z,81.53
2017-08-28T03:28:30.430Z,81.53
2017-08-28T03:29:39.647Z,81.4
2017-08-28T03:30:48.534Z,81.72
2017-08-28T03:31:57.410Z,81.92
2017-08-28T03:33:06.298Z,81.34
2017-08-28T03:34:15.177Z,81.68
2017-08-28T03:35:24.062Z,81.4
2017-08-28T03:36:32.947Z,81.72
2017-08-28T03:37:41.833Z,81.49
2017-08-28T03:38:50.715Z,81.68
2017-08-28T03:39:59.597Z,81.78
2017-08-28T03:41:08.482Z,81.87
2017-08-28T03:42:17.364Z,81.78
2017-08-28T03:43:26.250Z,81.3
2017-08-28T03:44:35.128Z,81.68
2017-08-28T03:45:44.013Z,81.49
2017-08-28T03:46:52.894Z,81.68
2017-08-28T03:48:01.777Z,81.49
2017-08-28T03:49:10.657Z,81.97
2017-08-28T03:50:19.544Z,81.97
2017-08-28T03:51:28.426Z,81.97
2017-08-28T03:52:37.309Z,81.87
2017-08-28T03:53:46.193Z,81.87
2017-08-28T03:54:55.076Z,82.07
2017-08-28T03:56:03.957Z,82.16
2017-08-28T03:57:12.841Z,81.97
2017-08-28T03:58:21.726Z,82.35
2017-08-28T03:59:30.610Z,82.16
2017-08-28T04:00:39.496Z,82.16
2017-08-28T04:01:48.373Z,81.97
2017-08-28T04:02:57.260Z,81.97
2017-08-28T04:04:06.141Z,82.07
2017-08-28T04:05:15.024Z,82.07
2017-08-28T04:06:23.902Z,81.97
2017-08-28T04:07:32.788Z,82.45
2017-08-28T04:08:41.675Z,82.93
2017-08-28T04:09:50.558Z,82.84
2017-08-28T04:10:59.440Z,82.74
2017-08-28T04:12:08.327Z,82.84
2017-08-28T04:13:17.207Z,82.54
2017-08-28T04:14:26.095Z,82.54
2017-08-28T04:15:34.978Z,82.54
2017-08-28T04:16:43.856Z,82.84
2017-08-28T04:17:52.742Z,82.54
2017-08-28T04:19:01.623Z,82.64
2017-08-28T04:20:10.509Z,82.84
2017-08-28T04:21:19.389Z,83.12
2017-08-28T04:22:28.281Z,83.12
2017-08-28T04:23:37.146Z,83.03
2017-08-28T04:24:46.035Z,83.51
2017-08-28T04:25:55.242Z,83.12
2017-08-28T04:27:04.128Z,83.31
2017-08-28T04:28:13.018Z,83.98
2017-08-28T04:29:22.224Z,83.51
2017-08-28T04:30:31.105Z,83.47
2017-08-28T04:31:39.992Z,83.41
2017-08-28T04:32:48.878Z,83.41
2017-08-28T04:33:57.760Z,83.31
2017-08-28T04:35:06.642Z,83.7
2017-08-28T04:36:15.529Z,83.6
2017-08-28T04:37:24.411Z,83.41
2017-08-28T04:38:33.623Z,83.37
2017-08-28T04:39:42.503Z,83.47
2017-08-28T04:40:51.388Z,83.94
2017-08-28T04:42:00.263Z,83.94
2017-08-28T04:43:09.147Z,83.75
2017-08-28T04:44:18.023Z,83.75
2017-08-28T04:45:26.905Z,83.65
2017-08-28T04:46:35.788Z,83.37
2017-08-28T04:47:44.673Z,83.56
2017-08-28T04:48:53.558Z,83.27
2017-08-28T04:50:02.442Z,83.27
2017-08-28T04:51:11.319Z,83.7
2017-08-28T04:52:20.202Z,83.56
2017-08-28T04:53:29.088Z,83.56
2017-08-28T04:54:37.972Z,83.47
2017-08-28T04:55:46.856Z,83.8
2017-08-28T04:56:55.744Z,83.37
2017-08-28T04:58:04.628Z,83.56
2017-08-28T04:59:13.507Z,83.47
2017-08-28T05:00:22.396Z,83.56
2017-08-28T05:01:31.275Z,83.65
2017-08-28T05:02:40.495Z,83.65
2017-08-28T05:03:49.377Z,83.37
2017-08-28T05:04:58.260Z,83.65
2017-08-28T05:06:07.138Z,83.75
2017-08-28T05:07:16.020Z,83.27
2017-08-28T05:08:24.904Z,83.75
2017-08-28T05:09:33.791Z,83.37
2017-08-28T05:10:42.674Z,83.27
2017-08-28T05:11:51.554Z,83.27
2017-08-28T05:13:00.434Z,83.94
2017-08-28T05:14:09.320Z,83.18
2017-08-28T05:15:18.209Z,83.65
2017-08-28T05:16:27.085Z,83.27
2017-08-28T05:17:35.975Z,83.37
2017-08-28T05:18:44.852Z,83.37
2017-08-28T05:19:53.735Z,83.18
2017-08-28T05:21:02.615Z,83.18
2017-08-28T05:22:11.500Z,83.27
2017-08-28T05:23:20.380Z,83.85
2017-08-28T05:24:29.268Z,83.27
2017-08-28T05:25:38.151Z,83.27
2017-08-28T05:26:47.038Z,83.56
2017-08-28T05:27:55.913Z,83.65
2017-08-28T05:29:04.794Z,83.65
2017-08-28T05:30:13.689Z,83.56
2017-08-28T05:31:22.895Z,83.37
2017-08-28T05:32:31.780Z,83.37
2017-08-28T05:33:40.660Z,83.56
2017-08-28T05:34:49.544Z,83.56
2017-08-28T05:35:58.422Z,83.75
2017-08-28T05:37:07.311Z,83.56
2017-08-28T05:38:16.191Z,83.37
2017-08-28T05:39:25.078Z,83.47
2017-08-28T05:40:33.960Z,83.47
2017-08-28T05:41:42.843Z,83.37
2017-08-28T05:42:51.722Z,82.98
2017-08-28T05:44:00.611Z,83.37
2017-08-28T05:45:09.487Z,83.47
2017-08-28T05:46:18.372Z,83.47
2017-08-28T05:47:27.257Z,83.47
2017-08-28T05:48:36.135Z,83.47
2017-08-28T05:49:45.018Z,82.98
2017-08-28T05:50:53.901Z,83.56
2017-08-28T05:52:02.788Z,83.12
2017-08-28T05:53:11.668Z,83.27
2017-08-28T05:54:20.556Z,83.31
2017-08-28T05:55:29.435Z,83.8
2017-08-28T05:56:38.318Z,83.22
2017-08-28T05:57:47.201Z,83.12
2017-08-28T05:58:56.084Z,83.41
2017-08-28T06:00:04.962Z,83.41
2017-08-28T06:01:13.850Z,83.03
2017-08-28T06:02:22.733Z,83.03
2017-08-28T06:03:31.615Z,83.22
2017-08-28T06:04:40.497Z,83.12
2017-08-28T06:05:49.382Z,83.12
2017-08-28T06:06:58.268Z,83.31
2017-08-28T06:08:07.274Z,83.12
2017-08-28T06:09:16.157Z,82.84
2017-08-28T06:10:25.036Z,82.84
2017-08-28T06:11:33.924Z,82.84
2017-08-28T06:12:42.809Z,82.64
2017-08-28T06:13:51.697Z,82.35
2017-08-28T06:15:00.596Z,82.45
2017-08-28T06:16:09.467Z,81.87
2017-08-28T06:17:18.347Z,81.97
2017-08-28T06:18:27.234Z,82.16
2017-08-28T06:19:36.119Z,82.07
2017-08-28T06:20:45.004Z,82.2
2017-08-28T06:21:53.895Z,82.2
2017-08-28T06:23:02.823Z,82.01
2017-08-28T06:24:11.704Z,82.01
2017-08-28T06:25:20.586Z,81.92
2017-08-28T06:26:29.476Z,81.63
2017-08-28T06:27:38.361Z,81.92
2017-08-28T06:28:47.244Z,81.92
2017-08-28T06:29:56.428Z,81.63
2017-08-28T06:31:05.816Z,81.53
2017-08-28T06:32:15.297Z,81.53
2017-08-28T06:33:24.484Z,82.01
2017-08-28T06:34:33.519Z,81.63
2017-08-28T06:35:42.399Z,81.72
2017-08-28T06:36:51.286Z,82.01
2017-08-28T06:38:00.164Z,81.63
2017-08-28T06:39:09.049Z,81.92
2017-08-28T06:40:17.956Z,81.82
2017-08-28T06:41:26.842Z,81.57
2017-08-28T06:42:35.725Z,81.63
2017-08-28T06:43:44.742Z,82.05
2017-08-28T06:44:54.027Z,82.01
2017-08-28T06:46:03.385Z,81.67
2017-08-28T06:47:12.310Z,81.38
2017-08-28T06:48:21.355Z,81.19
2017-08-28T06:49:30.572Z,80.9
2017-08-28T06:50:39.453Z,80.99
2017-08-28T06:51:48.337Z,80.8
2017-08-28T06:52:57.218Z,80.51
2017-08-28T06:54:06.436Z,80.42
2017-08-28T06:55:15.317Z,80.32
2017-08-28T06:56:24.349Z,80.22
2017-08-28T06:57:33.345Z,80.42
2017-08-28T06:58:42.618Z,80.71
2017-08-28T06:59:51.665Z,80.22
2017-08-28T07:01:00.639Z,79.94
2017-08-28T07:02:09.672Z,80.22
2017-08-28T07:03:18.752Z,79.75
2017-08-28T07:04:28.197Z,79.94
2017-08-28T07:05:37.239Z,79.65
2017-08-28T07:06:46.293Z,79.65
2017-08-28T07:07:55.220Z,79.94
2017-08-28T07:09:04.350Z,80.13
2017-08-28T07:10:13.568Z,79.98
2017-08-28T07:11:22.759Z,79.88
2017-08-28T07:12:31.641Z,79.65
2017-08-28T07:13:40.637Z,79.84
2017-08-28T07:14:49.560Z,79.6
2017-08-28T07:15:58.617Z,79.98
2017-08-28T07:17:07.664Z,79.79
2017-08-28T07:18:16.685Z,79.69
2017-08-28T07:19:25.791Z,79.79
2017-08-28T07:20:34.817Z,79.88
2017-08-28T07:21:43.813Z,79.6
2017-08-28T07:22:52.695Z,79.11
2017-08-28T07:24:01.581Z,79.11
2017-08-28T07:25:10.481Z,79.11
2017-08-28T07:26:19.360Z,79.11
2017-08-28T07:27:28.248Z,79.21
2017-08-28T07:28:37.128Z,79.02
2017-08-28T07:29:46.017Z,78.38
2017-08-28T07:30:54.901Z,77.96
2017-08-28T07:32:03.787Z,78.15
2017-08-28T07:33:12.665Z,77.67
2017-08-28T07:34:21.552Z,77.58
2017-08-28T07:35:30.434Z,77.58
2017-08-28T07:36:39.340Z,77.38
2017-08-28T07:37:48.211Z,77.96
2017-08-28T07:38:57.092Z,77.76
2017-08-28T07:40:05.976Z,77.76
2017-08-28T07:41:14.903Z,77.42
2017-08-28T07:42:23.912Z,77.42
2017-08-28T07:43:32.792Z,77.38
2017-08-28T07:44:41.682Z,77.19
2017-08-28T07:45:50.715Z,77.04
2017-08-28T07:46:59.698Z,76.94
2017-08-28T07:48:08.626Z,77.04
2017-08-28T07:49:17.540Z,77.33
2017-08-28T07:50:26.649Z,76.75
2017-08-28T07:51:35.883Z,76.17
2017-08-28T07:52:44.766Z,75.98
2017-08-28T07:53:53.648Z,76.36
2017-08-28T07:55:02.878Z,75.21
2017-08-28T07:56:11.763Z,75.49
2017-08-28T07:57:20.650Z,75.11
2017-08-28T07:58:29.537Z,75.59
2017-08-28T07:59:38.419Z,75.4
2017-08-28T08:00:47.298Z,75.4
2017-08-28T08:01:56.188Z,75.21
2017-08-28T08:03:05.065Z,75.21
2017-08-28T08:04:13.952Z,75.4
2017-08-28T08:05:22.836Z,75.21
2017-08-28T08:06:31.724Z,75.05
2017-08-28T08:07:40.603Z,74.86
2017-08-28T08:08:49.494Z,74.96
2017-08-28T08:09:58.377Z,74.38
2017-08-28T08:11:07.261Z,74.48
2017-08-28T08:12:16.150Z,74.57
2017-08-28T08:13:25.723Z,74.86
2017-08-28T08:14:34.606Z,74.19
2017-08-28T08:15:43.490Z,74.29
2017-08-28T08:16:52.381Z,74.29
2017-08-28T08:18:02.080Z,74.38
2017-08-28T08:19:11.576Z,74.19
2017-08-28T08:20:20.460Z,74.38
2017-08-28T08:21:29.346Z,74.09
2017-08-28T08:22:38.234Z,74.09
2017-08-28T08:23:47.124Z,74.29
2017-08-28T08:24:56.013Z,74.48
2017-08-28T08:26:04.891Z,74.38
2017-08-28T08:27:13.782Z,74.32
2017-08-28T08:28:22.663Z,73.84
2017-08-28T08:29:31.549Z,73.74
2017-08-28T08:30:40.434Z,73.36
2017-08-28T08:31:49.321Z,73.46
2017-08-28T08:32:58.204Z,73.26
2017-08-28T08:34:07.089Z,73.16
2017-08-28T08:35:15.980Z,73.3
2017-08-28T08:36:24.866Z,72.63
2017-08-28T08:37:33.754Z,72.33
2017-08-28T08:38:42.634Z,71.76
2017-08-28T08:39:51.520Z,71.08
2017-08-28T08:41:00.407Z,70.7
2017-08-28T08:42:09.413Z,70.31
2017-08-28T08:43:18.300Z,69.83
2017-08-28T08:44:27.197Z,69.64
2017-08-28T08:45:36.410Z,69.73
2017-08-28T08:46:45.335Z,69.35
2017-08-28T08:47:54.224Z,69.25
2017-08-28T08:49:03.131Z,69.73
2017-08-28T08:50:12.009Z,69.54
2017-08-28T08:51:20.969Z,69.54
2017-08-28T08:52:29.856Z,70.02
2017-08-28T08:53:38.740Z,69.93
2017-08-28T08:54:47.629Z,70.31
2017-08-28T08:55:56.510Z,70.12
2017-08-28T08:57:05.398Z,70.7
2017-08-28T08:58:14.282Z,70.21
2017-08-28T08:59:23.169Z,70.12
2017-08-28T09:00:32.050Z,70.12
2017-08-28T09:01:40.941Z,69.96
2017-08-28T09:02:49.825Z,69.48
2017-08-28T09:03:58.712Z,69.48
2017-08-28T09:05:07.597Z,69.19
2017-08-28T09:06:16.812Z,69.09
2017-08-28T09:07:25.697Z,68.23
2017-08-28T09:08:34.585Z,67.16
2017-08-28T09:09:43.474Z,67.36
2017-08-28T09:10:52.354Z,67.55
2017-08-28T09:12:01.243Z,67.55
2017-08-28T09:13:10.130Z,67.26
2017-08-28T09:14:19.016Z,67.74
2017-08-28T09:15:27.905Z,67.84
2017-08-28T09:16:36.791Z,67.94
2017-08-28T09:17:45.674Z,68.13
2017-08-28T09:18:54.567Z,68.23
2017-08-28T09:20:03.451Z,68.13
2017-08-28T09:21:12.339Z,68.61
2017-08-28T09:22:21.226Z,68.9
2017-08-28T09:23:30.108Z,68.42
2017-08-28T09:24:39.002Z,67.94
2017-08-28T09:25:47.885Z,68.99
2017-08-28T09:26:56.775Z,68.61
2017-08-28T09:28:05.662Z,68.52
2017-08-28T09:29:14.542Z,68.42
2017-08-28T09:30:23.426Z,67.74
2017-08-28T09:31:32.312Z,67.36
2017-08-28T09:32:41.202Z,67.36
2017-08-28T09:33:50.085Z,67.16
2017-08-28T09:34:58.974Z,67.16
2017-08-28T09:36:07.852Z,67.26
2017-08-28T09:37:16.738Z,67.65
2017-08-28T09:38:25.619Z,67.84
2017-08-28T09:39:34.509Z,67.84
2017-08-28T09:40:43.394Z,67.65
2017-08-28T09:41:52.281Z,67.42
2017-08-28T09:43:01.165Z,67.16
2017-08-28T09:44:10.049Z,66.75
2017-08-28T09:45:19.259Z,67.03
2017-08-28T09:46:28.148Z,67.03
2017-08-28T09:47:37.037Z,67.03
2017-08-28T09:48:45.924Z,67.16
2017-08-28T09:49:54.806Z,67.13
2017-08-28T09:51:03.689Z,66.36
2017-08-28T09:52:12.577Z,66.55
2017-08-28T09:53:21.457Z,66.55
2017-08-28T09:54:30.677Z,66.55
2017-08-28T09:55:39.565Z,66.65
2017-08-28T09:56:48.453Z,66.46
2017-08-28T09:57:57.334Z,66.75
2017-08-28T09:59:06.222Z,65.98
2017-08-28T10:00:15.105Z,65.88
2017-08-28T10:01:23.987Z,65.98
2017-08-28T10:02:32.874Z,66.17
2017-08-28T10:03:41.761Z,65.78
2017-08-28T10:04:50.644Z,66.17
2017-08-28T10:05:59.528Z,66.07
2017-08-28T10:07:08.417Z,66.27
2017-08-28T10:08:17.301Z,66.27
2017-08-28T10:09:26.186Z,65.78
2017-08-28T10:10:35.062Z,66.07
2017-08-28T10:11:43.954Z,66.27
2017-08-28T10:12:52.843Z,66.17
2017-08-28T10:14:01.726Z,66.27
2017-08-28T10:15:10.610Z,66.17
2017-08-28T10:16:19.496Z,66.17
2017-08-28T10:17:28.381Z,66.46
2017-08-28T10:18:37.268Z,66.36
2017-08-28T10:19:46.157Z,66.17
2017-08-28T10:20:55.045Z,66.27
2017-08-28T10:22:03.933Z,66.27
2017-08-28T10:23:12.810Z,66.07
2017-08-28T10:24:21.690Z,65.59
2017-08-28T10:25:30.575Z,65.5
2017-08-28T10:26:39.463Z,65.11
2017-08-28T10:27:48.682Z,64.15
2017-08-28T10:28:57.565Z,63.95
2017-08-28T10:30:06.452Z,63.57
2017-08-28T10:31:15.333Z,63.18
2017-08-28T10:32:24.220Z,63.18
2017-08-28T10:33:33.103Z,63.02
2017-08-28T10:34:41.994Z,62.54
2017-08-28T10:35:50.874Z,63.02
2017-08-28T10:36:59.762Z,62.93
2017-08-28T10:38:08.659Z,62.93
2017-08-28T10:39:17.542Z,62.83
2017-08-28T10:40:26.427Z,62.15
2017-08-28T10:41:35.649Z,61.77
2017-08-28T10:42:44.540Z,61.38
2017-08-28T10:43:53.419Z,61.22
2017-08-28T10:45:02.312Z,61.13
2017-08-28T10:46:11.195Z,60.55
2017-08-28T10:47:20.083Z,60.45
2017-08-28T10:48:28.978Z,59.97
2017-08-28T10:49:37.884Z,59.68
2017-08-28T10:50:47.075Z,59.97
2017-08-28T10:51:55.965Z,59.58
2017-08-28T10:53:04.849Z,59.48
2017-08-28T10:54:13.736Z,58.91
2017-08-28T10:55:22.624Z,58.62
2017-08-28T10:56:31.835Z,58.91
2017-08-28T10:57:40.720Z,58.23
2017-08-28T10:58:49.616Z,58.33
2017-08-28T10:59:58.501Z,58.42
2017-08-28T11:01:07.386Z,58.72
2017-08-28T11:02:16.274Z,58.04
2017-08-28T11:03:25.156Z,58.23
2017-08-28T11:04:34.045Z,58.36
2017-08-28T11:05:42.929Z,58.17
2017-08-28T11:06:51.821Z,57.78
2017-08-28T11:08:00.703Z,57.59
2017-08-28T11:09:09.593Z,57.29
2017-08-28T11:10:18.477Z,57.2
2017-08-28T11:11:27.373Z,57.14
2017-08-28T11:12:36.269Z,56.91
2017-08-28T11:13:45.138Z,56.65
2017-08-28T11:14:54.024Z,56.46
2017-08-28T11:16:02.915Z,56.16
2017-08-28T11:17:11.795Z,55.59
2017-08-28T11:18:20.678Z,55.4
2017-08-28T11:19:29.569Z,55.01
2017-08-28T11:20:38.450Z,54.62
2017-08-28T11:21:47.339Z,54.62
2017-08-28T11:22:56.231Z,55.1
2017-08-28T11:24:05.113Z,54.24
2017-08-28T11:25:14.660Z,54.14
2017-08-28T11:26:23.542Z,54.24
2017-08-28T11:27:32.429Z,54.72
2017-08-28T11:28:41.314Z,55.2
2017-08-28T11:29:50.206Z,54.82
2017-08-28T11:30:59.086Z,54.91
2017-08-28T11:32:07.976Z,55.2
2017-08-28T11:33:16.862Z,54.33
2017-08-28T11:34:25.748Z,54.53
2017-08-28T11:35:34.635Z,54.05
2017-08-28T11:36:43.520Z,54.53
2017-08-28T11:37:52.408Z,54.05
2017-08-28T11:39:01.296Z,53.66
2017-08-28T11:40:10.182Z,53.17
2017-08-28T11:41:19.062Z,53.27
2017-08-28T11:42:27.954Z,53.56
2017-08-28T11:43:36.840Z,53.56
2017-08-28T11:44:45.727Z,53.66
2017-08-28T11:45:54.615Z,53.27
2017-08-28T11:47:03.501Z,53.47
2017-08-28T11:48:12.383Z,52.91
2017-08-28T11:49:21.277Z,52.01
2017-08-28T11:50:30.160Z,52.5
2017-08-28T11:51:39.044Z,52.5
2017-08-28T11:52:47.931Z,52.89
2017-08-28T11:53:56.821Z,53.66
2017-08-28T11:55:05.706Z,53.75
2017-08-28T11:56:14.592Z,53.75
2017-08-28T11:57:23.481Z,53.95
2017-08-28T11:58:32.365Z,54.05
2017-08-28T11:59:41.254Z,54.14
2017-08-28T12:00:50.139Z,54.14
2017-08-28T12:01:59.025Z,54.36
2017-08-28T12:03:07.917Z,54.36
2017-08-28T12:04:16.805Z,53.97
2017-08-28T12:05:25.688Z,54.17
2017-08-28T12:06:34.574Z,54.27
2017-08-28T12:07:43.458Z,54.07
2017-08-28T12:08:52.346Z,54.07
2017-08-28T12:10:01.235Z,53.97
2017-08-28T12:11:10.122Z,53.88
2017-08-28T12:12:19.006Z,53.39
2017-08-28T12:13:27.890Z,53.2
2017-08-28T12:14:37.113Z,53.2
2017-08-28T12:15:45.997Z,53.11
2017-08-28T12:16:54.886Z,53.3
2017-08-28T12:18:03.765Z,53.2
2017-08-28T12:19:12.652Z,53.69
2017-08-28T12:20:21.540Z,52.91
2017-08-28T12:21:30.424Z,52.53
2017-08-28T12:22:39.312Z,51.29
2017-08-28T12:23:48.197Z,51.59
2017-08-28T12:24:57.085Z,51.78
2017-08-28T12:26:05.968Z,51.1
2017-08-28T12:27:14.856Z,50.71
2017-08-28T12:28:23.742Z,50.62
2017-08-28T12:29:32.627Z,50.91
2017-08-28T12:30:41.513Z,51.29
2017-08-28T12:31:50.400Z,51.39
2017-08-28T12:32:59.290Z,51.29
2017-08-28T12:34:08.178Z,51.39
2017-08-28T12:35:17.067Z,51.39
2017-08-28T12:36:25.952Z,51.29
2017-08-28T12:37:34.840Z,51.2
2017-08-28T12:38:43.725Z,51.1
2017-08-28T12:39:52.611Z,51.29
2017-08-28T12:41:01.494Z,51.29
2017-08-28T12:42:10.384Z,51.23
2017-08-28T12:43:19.276Z,51.23
2017-08-28T12:44:28.164Z,50.84
2017-08-28T12:45:37.050Z,50.84
2017-08-28T12:46:45.933Z,50.74
2017-08-28T12:47:54.822Z,50.65
2017-08-28T12:49:03.714Z,50.65
2017-08-28T12:50:12.604Z,50.45
2017-08-28T12:51:21.487Z,50.26
2017-08-28T12:52:30.374Z,50.26
2017-08-28T12:53:39.259Z,49.9
2017-08-28T12:54:48.150Z,50.38
2017-08-28T12:55:57.037Z,50.45
2017-08-28T12:57:05.930Z,50.48
2017-08-28T12:58:14.813Z,50.84
2017-08-28T12:59:23.707Z,50.18
2017-08-28T13:00:32.591Z,50.09
2017-08-28T13:01:41.482Z,50.28
2017-08-28T13:02:50.366Z,49.9
2017-08-28T13:03:59.255Z,49.7
2017-08-28T13:05:08.141Z,49.6
2017-08-28T13:06:17.366Z,49.12
2017-08-28T13:07:26.248Z,48.83
2017-08-28T13:08:35.132Z,49
2017-08-28T13:09:44.025Z,49.1
2017-08-28T13:10:52.915Z,49.12
2017-08-28T13:12:01.800Z,49.6
2017-08-28T13:13:10.682Z,49.51
2017-08-28T13:14:19.574Z,49.51
2017-08-28T13:15:28.790Z,49.02
2017-08-28T13:16:38.026Z,48.64
2017-08-28T13:17:46.917Z,48.74
2017-08-28T13:18:55.803Z,48.54
2017-08-28T13:20:04.688Z,48.93
2017-08-28T13:21:13.579Z,48.35
2017-08-28T13:22:22.467Z,48.16
2017-08-28T13:23:31.350Z,48.16
2017-08-28T13:24:40.241Z,47.86
2017-08-28T13:25:49.129Z,47.96
2017-08-28T13:26:58.013Z,47.86
2017-08-28T13:28:06.901Z,47.86
2017-08-28T13:29:15.788Z,48.16
2017-08-28T13:30:24.676Z,47.67
2017-08-28T13:31:33.572Z,47.48
2017-08-28T13:32:42.455Z,48.35
2017-08-28T13:33:51.347Z,47.96
2017-08-28T13:35:00.233Z,48.35
2017-08-28T13:36:09.125Z,48.16
2017-08-28T13:37:18.010Z,47.96
2017-08-28T13:38:26.901Z,47.96
2017-08-28T13:39:35.785Z,47.86
2017-08-28T13:40:45.004Z,48.06
2017-08-28T13:41:53.891Z,47.38
2017-08-28T13:43:02.776Z,47.96
2017-08-28T13:44:11.662Z,47.58
2017-08-28T13:45:20.552Z,48.16
2017-08-28T13:46:29.441Z,48.06
2017-08-28T13:47:38.326Z,47.55
2017-08-28T13:48:47.216Z,47.96
2017-08-28T13:49:56.103Z,47.94
2017-08-28T13:51:04.995Z,47.94
2017-08-28T13:52:13.878Z,47.94
2017-08-28T13:53:22.765Z,47.94
2017-08-28T13:54:31.647Z,47.74
2017-08-28T13:55:40.538Z,47.45
2017-08-28T13:56:49.422Z,47.16
2017-08-28T13:57:58.312Z,47
2017-08-28T13:59:07.196Z,47.16
2017-08-28T14:00:16.079Z,46.97
2017-08-28T14:01:24.961Z,46.88
2017-08-28T14:02:33.855Z,46.97
2017-08-28T14:03:42.740Z,46.78
2017-08-28T14:04:51.622Z,47.19
2017-08-28T14:06:00.512Z,47.16
2017-08-28T14:07:09.397Z,47.36
2017-08-28T14:08:18.612Z,47.19
2017-08-28T14:09:27.498Z,47.28
2017-08-28T14:10:36.391Z,47.45
2017-08-28T14:11:45.273Z,48.06
2017-08-28T14:12:54.164Z,47.19
2017-08-28T14:14:03.046Z,46.78
2017-08-28T14:15:11.941Z,46.97
2017-08-28T14:16:20.834Z,46.78
2017-08-28T14:17:30.049Z,47.28
2017-08-28T14:18:38.934Z,47.74
2017-08-28T14:19:47.821Z,48.25
2017-08-28T14:20:57.046Z,47.67
2017-08-28T14:22:06.266Z,47.77
2017-08-28T14:23:15.145Z,47.86
2017-08-28T14:24:24.034Z,48.16
2017-08-28T14:25:32.921Z,48.16
2017-08-28T14:26:41.815Z,47.86
2017-08-28T14:27:50.704Z,48.06
2017-08-28T14:28:59.595Z,47.58
2017-08-28T14:30:08.481Z,47.19
2017-08-28T14:31:17.372Z,47.19
2017-08-28T14:32:26.253Z,47.09
2017-08-28T14:33:35.139Z,47.09
2017-08-28T14:34:44.024Z,47.19
2017-08-28T14:35:52.913Z,47.48
2017-08-28T14:37:02.132Z,47.96
2017-08-28T14:38:11.023Z,47.96
2017-08-28T14:39:19.904Z,47.77
2017-08-28T14:40:28.787Z,47.86
2017-08-28T14:41:37.671Z,47.77
2017-08-28T14:42:46.556Z,48.16
2017-08-28T14:43:55.445Z,47.86
2017-08-28T14:45:04.329Z,48.06
2017-08-28T14:46:13.218Z,47.77
2017-08-28T14:47:22.773Z,48.06
2017-08-28T14:48:31.667Z,47.77
2017-08-28T14:49:40.548Z,47.96
2017-08-28T14:50:49.441Z,48.06